sensor_id;sensor_type;location;lat;lon;timestamp;temperature;humidity
66102;HTU21D;52883;51.094;5.880;2023-02-28T00:00:35;-0.40;118.99
66102;HTU21D;52883;51.094;5.880;2023-02-28T00:03:01;-0.42;118.99
66102;HTU21D;52883;51.094;5.880;2023-02-28T00:05:28;-0.40;118.99
66102;HTU21D;52883;51.094;5.880;2023-02-28T00:07:55;-0.42;118.99
66102;HTU21D;52883;51.094;5.880;2023-02-28T00:10:24;-0.44;118.99
66102;HTU21D;52883;51.094;5.880;2023-02-28T00:12:51;-0.49;118.99
66102;HTU21D;52883;51.094;5.880;2023-02-28T00:15:18;-0.51;118.99
66102;HTU21D;52883;51.094;5.880;2023-02-28T00:17:45;-0.54;118.99
66102;HTU21D;52883;51.094;5.880;2023-02-28T00:20:12;-0.55;118.99
66102;HTU21D;52883;51.094;5.880;2023-02-28T00:22:44;-0.57;118.99
66102;HTU21D;52883;51.094;5.880;2023-02-28T00:25:13;-0.58;118.99
66102;HTU21D;52883;51.094;5.880;2023-02-28T00:27:39;-0.56;118.99
66102;HTU21D;52883;51.094;5.880;2023-02-28T00:30:08;-0.57;118.99
66102;HTU21D;52883;51.094;5.880;2023-02-28T00:32:36;-0.60;118.99
66102;HTU21D;52883;51.094;5.880;2023-02-28T00:35:03;-0.68;118.99
66102;HTU21D;52883;51.094;5.880;2023-02-28T00:37:29;-0.68;118.99
66102;HTU21D;52883;51.094;5.880;2023-02-28T00:39:56;-0.70;118.99
66102;HTU21D;52883;51.094;5.880;2023-02-28T00:42:23;-0.71;118.99
66102;HTU21D;52883;51.094;5.880;2023-02-28T00:44:48;-0.72;118.99
66102;HTU21D;52883;51.094;5.880;2023-02-28T00:47:14;-0.72;118.99
66102;HTU21D;52883;51.094;5.880;2023-02-28T00:49:40;-0.72;118.99
66102;HTU21D;52883;51.094;5.880;2023-02-28T00:52:08;-0.76;118.99
66102;HTU21D;52883;51.094;5.880;2023-02-28T00:54:35;-0.82;118.99
66102;HTU21D;52883;51.094;5.880;2023-02-28T00:57:00;-0.80;118.99
66102;HTU21D;52883;51.094;5.880;2023-02-28T00:59:26;-0.80;118.99
66102;HTU21D;52883;51.094;5.880;2023-02-28T01:01:52;-0.85;118.99
66102;HTU21D;52883;51.094;5.880;2023-02-28T01:04:18;-0.85;118.99
66102;HTU21D;52883;51.094;5.880;2023-02-28T01:06:43;-0.88;118.99
66102;HTU21D;52883;51.094;5.880;2023-02-28T01:09:10;-0.93;118.99
66102;HTU21D;52883;51.094;5.880;2023-02-28T01:11:37;-0.93;118.99
66102;HTU21D;52883;51.094;5.880;2023-02-28T01:14:03;-0.89;118.99
66102;HTU21D;52883;51.094;5.880;2023-02-28T01:16:29;-0.89;118.99
66102;HTU21D;52883;51.094;5.880;2023-02-28T01:18:55;-0.91;118.99
66102;HTU21D;52883;51.094;5.880;2023-02-28T01:21:21;-0.94;118.99
66102;HTU21D;52883;51.094;5.880;2023-02-28T01:23:48;-0.96;118.99
66102;HTU21D;52883;51.094;5.880;2023-02-28T01:26:17;-0.96;118.99
66102;HTU21D;52883;51.094;5.880;2023-02-28T01:28:43;-0.99;118.99
66102;HTU21D;52883;51.094;5.880;2023-02-28T01:31:09;-0.99;118.99
66102;HTU21D;52883;51.094;5.880;2023-02-28T01:33:38;-0.98;118.99
66102;HTU21D;52883;51.094;5.880;2023-02-28T01:36:12;-1.03;118.99
66102;HTU21D;52883;51.094;5.880;2023-02-28T01:38:38;-1.11;118.99
66102;HTU21D;52883;51.094;5.880;2023-02-28T01:41:05;-1.11;118.99
66102;HTU21D;52883;51.094;5.880;2023-02-28T01:44:02;-1.16;118.99
66102;HTU21D;52883;51.094;5.880;2023-02-28T01:46:30;-1.20;118.99
66102;HTU21D;52883;51.094;5.880;2023-02-28T01:49:13;-1.21;118.99
66102;HTU21D;52883;51.094;5.880;2023-02-28T01:51:47;-1.27;118.99
66102;HTU21D;52883;51.094;5.880;2023-02-28T01:54:25;-1.33;118.99
66102;HTU21D;52883;51.094;5.880;2023-02-28T01:56:59;-1.39;118.99
66102;HTU21D;52883;51.094;5.880;2023-02-28T01:59:39;-1.40;118.99
66102;HTU21D;52883;51.094;5.880;2023-02-28T02:02:10;-1.46;118.99
66102;HTU21D;52883;51.094;5.880;2023-02-28T02:04:52;-1.53;118.99
66102;HTU21D;52883;51.094;5.880;2023-02-28T02:07:19;-1.59;118.99
66102;HTU21D;52883;51.094;5.880;2023-02-28T02:09:45;-1.68;118.99
66102;HTU21D;52883;51.094;5.880;2023-02-28T02:15:16;-1.72;118.99
66102;HTU21D;52883;51.094;5.880;2023-02-28T02:17:48;-1.76;118.99
66102;HTU21D;52883;51.094;5.880;2023-02-28T02:23:50;-1.80;118.99
66102;HTU21D;52883;51.094;5.880;2023-02-28T02:40:14;-1.91;118.99
66102;HTU21D;52883;51.094;5.880;2023-02-28T02:48:16;-1.87;118.99
66102;HTU21D;52883;51.094;5.880;2023-02-28T02:50:55;-1.86;118.99
66102;HTU21D;52883;51.094;5.880;2023-02-28T02:53:35;-1.86;118.99
66102;HTU21D;52883;51.094;5.880;2023-02-28T02:56:05;-1.91;118.99
66102;HTU21D;52883;51.094;5.880;2023-02-28T02:58:37;-1.94;118.99
66102;HTU21D;52883;51.094;5.880;2023-02-28T03:01:15;-1.93;118.99
66102;HTU21D;52883;51.094;5.880;2023-02-28T03:03:41;-1.90;118.99
66102;HTU21D;52883;51.094;5.880;2023-02-28T03:06:07;-1.89;118.99
66102;HTU21D;52883;51.094;5.880;2023-02-28T03:08:36;-1.89;118.99
66102;HTU21D;52883;51.094;5.880;2023-02-28T03:11:13;-1.88;118.99
66102;HTU21D;52883;51.094;5.880;2023-02-28T03:13:51;-1.87;118.99
66102;HTU21D;52883;51.094;5.880;2023-02-28T03:19:30;-1.88;118.99
66102;HTU21D;52883;51.094;5.880;2023-02-28T03:24:57;-1.86;118.99
66102;HTU21D;52883;51.094;5.880;2023-02-28T03:27:42;-1.84;118.99
66102;HTU21D;52883;51.094;5.880;2023-02-28T03:30:23;-1.76;118.99
66102;HTU21D;52883;51.094;5.880;2023-02-28T03:33:47;-1.72;118.99
66102;HTU21D;52883;51.094;5.880;2023-02-28T03:36:13;-1.73;118.99
66102;HTU21D;52883;51.094;5.880;2023-02-28T03:38:56;-1.77;118.99
66102;HTU21D;52883;51.094;5.880;2023-02-28T03:41:32;-1.84;118.99
66102;HTU21D;52883;51.094;5.880;2023-02-28T03:44:13;-1.91;118.99
66102;HTU21D;52883;51.094;5.880;2023-02-28T03:46:48;-1.97;118.99
66102;HTU21D;52883;51.094;5.880;2023-02-28T03:49:23;-2.03;118.99
66102;HTU21D;52883;51.094;5.880;2023-02-28T03:51:51;-2.06;118.99
66102;HTU21D;52883;51.094;5.880;2023-02-28T03:54:24;-2.13;118.99
66102;HTU21D;52883;51.094;5.880;2023-02-28T03:56:59;-2.19;118.99
66102;HTU21D;52883;51.094;5.880;2023-02-28T03:59:38;-2.21;118.99
66102;HTU21D;52883;51.094;5.880;2023-02-28T04:02:05;-2.26;118.99
66102;HTU21D;52883;51.094;5.880;2023-02-28T04:04:31;-2.23;118.99
66102;HTU21D;52883;51.094;5.880;2023-02-28T04:07:06;-2.32;118.99
66102;HTU21D;52883;51.094;5.880;2023-02-28T04:09:32;-2.34;118.99
66102;HTU21D;52883;51.094;5.880;2023-02-28T04:11:57;-2.37;118.99
66102;HTU21D;52883;51.094;5.880;2023-02-28T04:14:23;-2.37;118.99
66102;HTU21D;52883;51.094;5.880;2023-02-28T04:16:49;-2.41;118.99
66102;HTU21D;52883;51.094;5.880;2023-02-28T04:19:16;-2.44;118.99
66102;HTU21D;52883;51.094;5.880;2023-02-28T04:21:52;-2.47;118.99
66102;HTU21D;52883;51.094;5.880;2023-02-28T04:24:23;-2.49;118.99
66102;HTU21D;52883;51.094;5.880;2023-02-28T04:26:52;-2.53;118.99
66102;HTU21D;52883;51.094;5.880;2023-02-28T04:29:21;-2.62;118.99
66102;HTU21D;52883;51.094;5.880;2023-02-28T04:31:47;-2.67;118.99
66102;HTU21D;52883;51.094;5.880;2023-02-28T04:34:13;-2.72;118.99
66102;HTU21D;52883;51.094;5.880;2023-02-28T04:36:39;-2.74;118.99
66102;HTU21D;52883;51.094;5.880;2023-02-28T04:39:05;-2.77;118.99
66102;HTU21D;52883;51.094;5.880;2023-02-28T04:41:30;-2.77;118.99
66102;HTU21D;52883;51.094;5.880;2023-02-28T04:43:56;-2.76;118.99
66102;HTU21D;52883;51.094;5.880;2023-02-28T04:46:22;-2.75;118.99
66102;HTU21D;52883;51.094;5.880;2023-02-28T04:48:48;-2.72;118.99
66102;HTU21D;52883;51.094;5.880;2023-02-28T04:51:16;-2.73;118.99
66102;HTU21D;52883;51.094;5.880;2023-02-28T04:53:42;-2.71;118.99
66102;HTU21D;52883;51.094;5.880;2023-02-28T04:56:12;-2.75;118.99
66102;HTU21D;52883;51.094;5.880;2023-02-28T04:58:38;-2.80;118.99
66102;HTU21D;52883;51.094;5.880;2023-02-28T05:01:07;-2.79;118.99
66102;HTU21D;52883;51.094;5.880;2023-02-28T05:03:40;-2.78;118.99
66102;HTU21D;52883;51.094;5.880;2023-02-28T05:06:08;-2.77;118.99
66102;HTU21D;52883;51.094;5.880;2023-02-28T05:08:33;-2.69;118.99
66102;HTU21D;52883;51.094;5.880;2023-02-28T05:11:00;-2.76;118.99
66102;HTU21D;52883;51.094;5.880;2023-02-28T05:13:29;-2.76;118.99
66102;HTU21D;52883;51.094;5.880;2023-02-28T05:15:55;-2.77;118.99
66102;HTU21D;52883;51.094;5.880;2023-02-28T05:18:21;-2.78;118.99
66102;HTU21D;52883;51.094;5.880;2023-02-28T05:20:47;-2.78;118.99
66102;HTU21D;52883;51.094;5.880;2023-02-28T05:23:14;-2.75;118.99
66102;HTU21D;52883;51.094;5.880;2023-02-28T05:25:40;-2.67;118.99
66102;HTU21D;52883;51.094;5.880;2023-02-28T05:28:06;-2.61;118.99
66102;HTU21D;52883;51.094;5.880;2023-02-28T05:30:33;-2.51;118.99
66102;HTU21D;52883;51.094;5.880;2023-02-28T05:32:59;-2.48;118.99
66102;HTU21D;52883;51.094;5.880;2023-02-28T05:35:26;-2.42;118.99
66102;HTU21D;52883;51.094;5.880;2023-02-28T05:37:52;-2.31;118.99
66102;HTU21D;52883;51.094;5.880;2023-02-28T05:40:18;-2.31;118.99
66102;HTU21D;52883;51.094;5.880;2023-02-28T05:42:46;-2.34;118.99
66102;HTU21D;52883;51.094;5.880;2023-02-28T05:45:12;-2.35;118.99
66102;HTU21D;52883;51.094;5.880;2023-02-28T05:47:38;-2.37;118.99
66102;HTU21D;52883;51.094;5.880;2023-02-28T05:50:05;-2.41;118.99
66102;HTU21D;52883;51.094;5.880;2023-02-28T05:52:31;-2.47;118.99
66102;HTU21D;52883;51.094;5.880;2023-02-28T05:54:57;-2.42;118.99
66102;HTU21D;52883;51.094;5.880;2023-02-28T05:57:23;-2.49;118.99
66102;HTU21D;52883;51.094;5.880;2023-02-28T05:59:49;-2.46;118.99
66102;HTU21D;52883;51.094;5.880;2023-02-28T06:02:16;-2.51;118.99
66102;HTU21D;52883;51.094;5.880;2023-02-28T06:04:43;-2.56;118.99
66102;HTU21D;52883;51.094;5.880;2023-02-28T06:07:09;-2.51;118.99
66102;HTU21D;52883;51.094;5.880;2023-02-28T06:09:36;-2.54;118.99
66102;HTU21D;52883;51.094;5.880;2023-02-28T06:12:04;-2.56;118.99
66102;HTU21D;52883;51.094;5.880;2023-02-28T06:14:32;-2.61;118.99
66102;HTU21D;52883;51.094;5.880;2023-02-28T06:16:59;-2.67;118.99
66102;HTU21D;52883;51.094;5.880;2023-02-28T06:19:25;-2.67;118.99
66102;HTU21D;52883;51.094;5.880;2023-02-28T06:21:52;-2.67;118.99
66102;HTU21D;52883;51.094;5.880;2023-02-28T06:24:23;-2.77;118.99
66102;HTU21D;52883;51.094;5.880;2023-02-28T06:26:49;-2.78;118.99
66102;HTU21D;52883;51.094;5.880;2023-02-28T06:29:16;-2.72;118.99
66102;HTU21D;52883;51.094;5.880;2023-02-28T06:31:47;-2.63;118.99
66102;HTU21D;52883;51.094;5.880;2023-02-28T06:34:13;-2.54;118.99
66102;HTU21D;52883;51.094;5.880;2023-02-28T06:36:41;-2.50;118.99
66102;HTU21D;52883;51.094;5.880;2023-02-28T06:39:07;-2.47;118.99
66102;HTU21D;52883;51.094;5.880;2023-02-28T06:41:34;-2.42;118.99
66102;HTU21D;52883;51.094;5.880;2023-02-28T06:44:12;-2.49;118.99
66102;HTU21D;52883;51.094;5.880;2023-02-28T06:46:40;-2.47;118.99
66102;HTU21D;52883;51.094;5.880;2023-02-28T06:49:06;-2.35;118.99
66102;HTU21D;52883;51.094;5.880;2023-02-28T06:51:35;-2.30;118.99
66102;HTU21D;52883;51.094;5.880;2023-02-28T06:54:01;-2.21;118.99
66102;HTU21D;52883;51.094;5.880;2023-02-28T06:56:27;-2.13;118.99
66102;HTU21D;52883;51.094;5.880;2023-02-28T06:58:52;-1.92;118.99
66102;HTU21D;52883;51.094;5.880;2023-02-28T07:01:18;-1.70;118.99
66102;HTU21D;52883;51.094;5.880;2023-02-28T07:03:45;-1.54;118.99
66102;HTU21D;52883;51.094;5.880;2023-02-28T07:06:11;-1.34;118.99
66102;HTU21D;52883;51.094;5.880;2023-02-28T07:08:37;-1.11;118.99
66102;HTU21D;52883;51.094;5.880;2023-02-28T07:11:04;-0.79;118.99
66102;HTU21D;52883;51.094;5.880;2023-02-28T07:13:29;-0.69;118.99
66102;HTU21D;52883;51.094;5.880;2023-02-28T07:16:01;-0.65;118.99
66102;HTU21D;52883;51.094;5.880;2023-02-28T07:18:27;-0.71;118.99
66102;HTU21D;52883;51.094;5.880;2023-02-28T07:20:53;-0.68;118.99
66102;HTU21D;52883;51.094;5.880;2023-02-28T07:23:19;-0.68;118.99
66102;HTU21D;52883;51.094;5.880;2023-02-28T07:25:45;-0.68;118.99
66102;HTU21D;52883;51.094;5.880;2023-02-28T07:28:12;-0.73;118.99
66102;HTU21D;52883;51.094;5.880;2023-02-28T07:30:38;-0.77;118.99
66102;HTU21D;52883;51.094;5.880;2023-02-28T07:33:04;-0.81;118.99
66102;HTU21D;52883;51.094;5.880;2023-02-28T07:35:30;-0.47;118.99
66102;HTU21D;52883;51.094;5.880;2023-02-28T07:38:00;-0.25;118.99
66102;HTU21D;52883;51.094;5.880;2023-02-28T07:40:26;-0.01;118.99
66102;HTU21D;52883;51.094;5.880;2023-02-28T07:42:51;0.25;118.99
66102;HTU21D;52883;51.094;5.880;2023-02-28T07:45:17;0.43;118.99
66102;HTU21D;52883;51.094;5.880;2023-02-28T07:47:43;0.31;118.99
66102;HTU21D;52883;51.094;5.880;2023-02-28T07:50:14;0.33;118.99
66102;HTU21D;52883;51.094;5.880;2023-02-28T07:52:40;0.36;118.99
66102;HTU21D;52883;51.094;5.880;2023-02-28T07:55:08;0.45;118.99
66102;HTU21D;52883;51.094;5.880;2023-02-28T07:57:35;0.64;118.99
66102;HTU21D;52883;51.094;5.880;2023-02-28T08:00:02;1.08;118.99
66102;HTU21D;52883;51.094;5.880;2023-02-28T08:02:37;1.01;118.99
66102;HTU21D;52883;51.094;5.880;2023-02-28T08:05:02;0.83;118.99
66102;HTU21D;52883;51.094;5.880;2023-02-28T08:07:28;0.84;118.99
66102;HTU21D;52883;51.094;5.880;2023-02-28T08:09:54;1.05;118.84
66102;HTU21D;52883;51.094;5.880;2023-02-28T08:12:19;1.25;117.34
66102;HTU21D;52883;51.094;5.880;2023-02-28T08:14:45;1.27;118.99
66102;HTU21D;52883;51.094;5.880;2023-02-28T08:17:11;1.20;115.12
66102;HTU21D;52883;51.094;5.880;2023-02-28T08:19:38;1.41;115.04
66102;HTU21D;52883;51.094;5.880;2023-02-28T08:22:03;1.77;110.27
66102;HTU21D;52883;51.094;5.880;2023-02-28T08:24:29;2.00;109.67
66102;HTU21D;52883;51.094;5.880;2023-02-28T08:26:56;2.16;112.08
66102;HTU21D;52883;51.094;5.880;2023-02-28T08:29:22;2.49;98.16
66102;HTU21D;52883;51.094;5.880;2023-02-28T08:31:48;2.28;100.20
66102;HTU21D;52883;51.094;5.880;2023-02-28T08:34:15;2.12;113.87
66102;HTU21D;52883;51.094;5.880;2023-02-28T08:36:42;2.02;106.04
66102;HTU21D;52883;51.094;5.880;2023-02-28T08:39:10;1.90;113.77
66102;HTU21D;52883;51.094;5.880;2023-02-28T08:41:36;1.91;112.22
66102;HTU21D;52883;51.094;5.880;2023-02-28T08:44:02;2.12;106.74
66102;HTU21D;52883;51.094;5.880;2023-02-28T08:46:27;2.41;113.43
66102;HTU21D;52883;51.094;5.880;2023-02-28T08:48:55;2.84;105.33
66102;HTU21D;52883;51.094;5.880;2023-02-28T08:51:22;3.36;112.38
66102;HTU21D;52883;51.094;5.880;2023-02-28T08:54:00;3.55;80.91
66102;HTU21D;52883;51.094;5.880;2023-02-28T08:56:28;3.59;92.86
66102;HTU21D;52883;51.094;5.880;2023-02-28T08:58:55;3.63;82.73
66102;HTU21D;52883;51.094;5.880;2023-02-28T09:01:29;3.76;72.93
66102;HTU21D;52883;51.094;5.880;2023-02-28T09:03:57;3.91;68.43
66102;HTU21D;52883;51.094;5.880;2023-02-28T09:06:25;4.04;68.99
66102;HTU21D;52883;51.094;5.880;2023-02-28T09:08:52;4.21;61.28
66102;HTU21D;52883;51.094;5.880;2023-02-28T09:11:18;4.45;78.00
66102;HTU21D;52883;51.094;5.880;2023-02-28T09:13:45;4.67;69.99
66102;HTU21D;52883;51.094;5.880;2023-02-28T09:16:13;4.61;60.61
66102;HTU21D;52883;51.094;5.880;2023-02-28T09:18:39;4.32;66.85
66102;HTU21D;52883;51.094;5.880;2023-02-28T09:21:07;4.18;65.02
66102;HTU21D;52883;51.094;5.880;2023-02-28T09:23:34;4.19;68.85
66102;HTU21D;52883;51.094;5.880;2023-02-28T09:26:00;4.27;61.15
66102;HTU21D;52883;51.094;5.880;2023-02-28T09:28:26;4.41;72.93
66102;HTU21D;52883;51.094;5.880;2023-02-28T09:30:54;4.49;56.63
66102;HTU21D;52883;51.094;5.880;2023-02-28T09:33:21;4.58;62.21
66102;HTU21D;52883;51.094;5.880;2023-02-28T09:35:48;4.58;54.50
66102;HTU21D;52883;51.094;5.880;2023-02-28T09:38:13;4.78;63.81
66102;HTU21D;52883;51.094;5.880;2023-02-28T09:43:17;5.08;55.44
66102;HTU21D;52883;51.094;5.880;2023-02-28T09:46:12;5.26;60.64
66102;HTU21D;52883;51.094;5.880;2023-02-28T09:48:45;5.23;49.34
66102;HTU21D;52883;51.094;5.880;2023-02-28T09:51:44;5.53;54.46
66102;HTU21D;52883;51.094;5.880;2023-02-28T09:54:21;5.87;58.57
66102;HTU21D;52883;51.094;5.880;2023-02-28T09:57:07;5.90;51.65
66102;HTU21D;52883;51.094;5.880;2023-02-28T09:59:59;5.84;50.83
66102;HTU21D;52883;51.094;5.880;2023-02-28T10:05:23;5.95;47.50
66102;HTU21D;52883;51.094;5.880;2023-02-28T10:08:08;6.16;46.83
66102;HTU21D;52883;51.094;5.880;2023-02-28T10:11:14;6.25;48.46
66102;HTU21D;52883;51.094;5.880;2023-02-28T10:13:54;6.55;48.36
66102;HTU21D;52883;51.094;5.880;2023-02-28T10:16:50;6.65;46.21
66102;HTU21D;52883;51.094;5.880;2023-02-28T10:19:44;6.60;46.77
66102;HTU21D;52883;51.094;5.880;2023-02-28T10:22:14;6.82;44.29
66102;HTU21D;52883;51.094;5.880;2023-02-28T10:24:48;6.70;46.06
66102;HTU21D;52883;51.094;5.880;2023-02-28T10:29:54;6.98;43.58
66102;HTU21D;52883;51.094;5.880;2023-02-28T10:32:30;7.22;45.35
66102;HTU21D;52883;51.094;5.880;2023-02-28T10:37:32;7.12;42.01
66102;HTU21D;52883;51.094;5.880;2023-02-28T10:40:05;7.15;42.61
66102;HTU21D;52883;51.094;5.880;2023-02-28T10:42:32;7.25;44.25
66102;HTU21D;52883;51.094;5.880;2023-02-28T10:45:14;7.31;43.49
66102;HTU21D;52883;51.094;5.880;2023-02-28T10:47:56;7.16;39.60
66102;HTU21D;52883;51.094;5.880;2023-02-28T10:59:00;6.60;41.45
66102;HTU21D;52883;51.094;5.880;2023-02-28T11:01:42;6.61;42.47
66102;HTU21D;52883;51.094;5.880;2023-02-28T11:04:35;6.95;41.64
66102;HTU21D;52883;51.094;5.880;2023-02-28T11:07:17;7.12;41.50
66102;HTU21D;52883;51.094;5.880;2023-02-28T11:09:48;7.07;41.07
66102;HTU21D;52883;51.094;5.880;2023-02-28T11:12:39;6.73;41.39
66102;HTU21D;52883;51.094;5.880;2023-02-28T11:15:21;6.60;43.01
66102;HTU21D;52883;51.094;5.880;2023-02-28T11:18:20;6.71;40.58
66102;HTU21D;52883;51.094;5.880;2023-02-28T11:20:48;6.79;41.14
66102;HTU21D;52883;51.094;5.880;2023-02-28T11:23:17;7.09;41.10
66102;HTU21D;52883;51.094;5.880;2023-02-28T11:25:59;7.22;40.75
66102;HTU21D;52883;51.094;5.880;2023-02-28T11:28:35;7.31;39.83
66102;HTU21D;52883;51.094;5.880;2023-02-28T11:33:48;7.31;39.28
66102;HTU21D;52883;51.094;5.880;2023-02-28T11:38:50;6.59;41.79
66102;HTU21D;52883;51.094;5.880;2023-02-28T11:41:20;7.08;40.36
66102;HTU21D;52883;51.094;5.880;2023-02-28T11:51:59;7.97;41.07
66102;HTU21D;52883;51.094;5.880;2023-02-28T11:57:33;7.92;40.91
66102;HTU21D;52883;51.094;5.880;2023-02-28T12:05:45;8.59;40.34
66102;HTU21D;52883;51.094;5.880;2023-02-28T12:13:50;7.68;39.51
66102;HTU21D;52883;51.094;5.880;2023-02-28T12:16:24;7.67;40.45
66102;HTU21D;52883;51.094;5.880;2023-02-28T12:19:04;8.11;39.23
66102;HTU21D;52883;51.094;5.880;2023-02-28T12:24:51;8.95;38.04
66102;HTU21D;52883;51.094;5.880;2023-02-28T12:27:23;9.30;36.94
66102;HTU21D;52883;51.094;5.880;2023-02-28T12:30:02;9.59;38.14
66102;HTU21D;52883;51.094;5.880;2023-02-28T12:32:35;9.60;39.00
66102;HTU21D;52883;51.094;5.880;2023-02-28T12:35:12;9.07;38.24
66102;HTU21D;52883;51.094;5.880;2023-02-28T12:37:57;8.74;40.72
66102;HTU21D;52883;51.094;5.880;2023-02-28T12:40:46;8.28;42.95
66102;HTU21D;52883;51.094;5.880;2023-02-28T12:43:17;7.55;43.76
66102;HTU21D;52883;51.094;5.880;2023-02-28T12:45:53;7.05;43.98
66102;HTU21D;52883;51.094;5.880;2023-02-28T12:48:35;6.81;46.30
66102;HTU21D;52883;51.094;5.880;2023-02-28T12:51:03;6.63;46.89
66102;HTU21D;52883;51.094;5.880;2023-02-28T12:56:16;6.15;46.77
66102;HTU21D;52883;51.094;5.880;2023-02-28T12:58:48;6.14;47.96
66102;HTU21D;52883;51.094;5.880;2023-02-28T13:01:49;6.51;47.10
66102;HTU21D;52883;51.094;5.880;2023-02-28T13:07:08;7.19;46.79
66102;HTU21D;52883;51.094;5.880;2023-02-28T13:09:38;7.09;45.80
66102;HTU21D;52883;51.094;5.880;2023-02-28T13:12:14;6.93;46.06
66102;HTU21D;52883;51.094;5.880;2023-02-28T13:14:40;6.96;45.31
66102;HTU21D;52883;51.094;5.880;2023-02-28T13:19:41;7.49;46.37
66102;HTU21D;52883;51.094;5.880;2023-02-28T13:28:09;7.68;43.79
66102;HTU21D;52883;51.094;5.880;2023-02-28T13:36:09;7.55;43.26
66102;HTU21D;52883;51.094;5.880;2023-02-28T13:54:34;7.83;42.32
66102;HTU21D;52883;51.094;5.880;2023-02-28T14:06:25;7.45;40.71
66102;HTU21D;52883;51.094;5.880;2023-02-28T14:11:34;7.25;44.70
66102;HTU21D;52883;51.094;5.880;2023-02-28T14:14:02;7.34;45.16
66102;HTU21D;52883;51.094;5.880;2023-02-28T14:19:21;7.20;45.59
66102;HTU21D;52883;51.094;5.880;2023-02-28T14:22:12;7.15;44.53
66102;HTU21D;52883;51.094;5.880;2023-02-28T14:24:48;7.07;45.03
66102;HTU21D;52883;51.094;5.880;2023-02-28T14:30:52;7.46;43.84
66102;HTU21D;52883;51.094;5.880;2023-02-28T14:36:12;7.40;43.84
66102;HTU21D;52883;51.094;5.880;2023-02-28T14:38:48;7.17;42.45
66102;HTU21D;52883;51.094;5.880;2023-02-28T14:41:31;7.18;42.98
66102;HTU21D;52883;51.094;5.880;2023-02-28T14:44:01;6.91;43.33
66102;HTU21D;52883;51.094;5.880;2023-02-28T14:46:37;6.56;42.72
66102;HTU21D;52883;51.094;5.880;2023-02-28T14:49:07;6.31;44.07
66102;HTU21D;52883;51.094;5.880;2023-02-28T14:51:36;6.08;44.29
66102;HTU21D;52883;51.094;5.880;2023-02-28T14:54:03;5.98;44.83
66102;HTU21D;52883;51.094;5.880;2023-02-28T14:56:37;5.97;44.70
66102;HTU21D;52883;51.094;5.880;2023-02-28T14:59:04;5.94;44.19
66102;HTU21D;52883;51.094;5.880;2023-02-28T15:01:31;5.84;43.75
66102;HTU21D;52883;51.094;5.880;2023-02-28T15:04:06;5.80;43.95
66102;HTU21D;52883;51.094;5.880;2023-02-28T15:06:33;5.67;44.16
66102;HTU21D;52883;51.094;5.880;2023-02-28T15:09:18;5.62;44.91
66102;HTU21D;52883;51.094;5.880;2023-02-28T15:11:48;5.63;44.78
66102;HTU21D;52883;51.094;5.880;2023-02-28T15:14:19;5.60;45.09
66102;HTU21D;52883;51.094;5.880;2023-02-28T15:16:50;5.43;46.19
66102;HTU21D;52883;51.094;5.880;2023-02-28T15:22:13;5.25;47.09
66102;HTU21D;52883;51.094;5.880;2023-02-28T15:24:50;5.17;47.05
66102;HTU21D;52883;51.094;5.880;2023-02-28T15:27:20;5.11;47.78
66102;HTU21D;52883;51.094;5.880;2023-02-28T15:29:50;5.13;47.25
66102;HTU21D;52883;51.094;5.880;2023-02-28T15:32:39;5.21;46.51
66102;HTU21D;52883;51.094;5.880;2023-02-28T15:35:30;5.12;47.68
66102;HTU21D;52883;51.094;5.880;2023-02-28T15:38:01;5.05;48.29
66102;HTU21D;52883;51.094;5.880;2023-02-28T15:40:36;4.94;48.70
66102;HTU21D;52883;51.094;5.880;2023-02-28T15:43:13;4.90;49.15
66102;HTU21D;52883;51.094;5.880;2023-02-28T15:48:25;4.78;49.63
66102;HTU21D;52883;51.094;5.880;2023-02-28T15:50:58;4.77;49.54
66102;HTU21D;52883;51.094;5.880;2023-02-28T15:53:30;4.76;50.11
66102;HTU21D;52883;51.094;5.880;2023-02-28T15:56:22;4.73;50.08
66102;HTU21D;52883;51.094;5.880;2023-02-28T15:58:49;4.69;50.24
66102;HTU21D;52883;51.094;5.880;2023-02-28T16:01:23;4.66;49.64
66102;HTU21D;52883;51.094;5.880;2023-02-28T16:03:52;4.62;50.34
66102;HTU21D;52883;51.094;5.880;2023-02-28T16:09:04;4.49;50.77
66102;HTU21D;52883;51.094;5.880;2023-02-28T16:11:29;4.50;51.60
66102;HTU21D;52883;51.094;5.880;2023-02-28T16:13:56;4.45;52.33
66102;HTU21D;52883;51.094;5.880;2023-02-28T16:16:24;4.44;51.96
66102;HTU21D;52883;51.094;5.880;2023-02-28T16:18:52;4.44;52.24
66102;HTU21D;52883;51.094;5.880;2023-02-28T16:21:17;4.38;51.92
66102;HTU21D;52883;51.094;5.880;2023-02-28T16:23:43;4.34;52.65
66102;HTU21D;52883;51.094;5.880;2023-02-28T16:26:25;4.31;52.83
66102;HTU21D;52883;51.094;5.880;2023-02-28T16:28:54;4.28;52.51
66102;HTU21D;52883;51.094;5.880;2023-02-28T16:31:20;4.26;53.23
66102;HTU21D;52883;51.094;5.880;2023-02-28T16:33:46;4.22;53.24
66102;HTU21D;52883;51.094;5.880;2023-02-28T16:36:21;4.15;53.59
66102;HTU21D;52883;51.094;5.880;2023-02-28T16:38:47;4.07;53.56
66102;HTU21D;52883;51.094;5.880;2023-02-28T16:41:22;4.00;53.97
66102;HTU21D;52883;51.094;5.880;2023-02-28T16:43:53;3.93;54.16
66102;HTU21D;52883;51.094;5.880;2023-02-28T16:46:20;3.92;54.38
66102;HTU21D;52883;51.094;5.880;2023-02-28T16:48:47;3.83;54.78
66102;HTU21D;52883;51.094;5.880;2023-02-28T16:51:17;3.76;55.16
66102;HTU21D;52883;51.094;5.880;2023-02-28T16:53:43;3.67;55.78
66102;HTU21D;52883;51.094;5.880;2023-02-28T16:56:29;3.53;56.40
66102;HTU21D;52883;51.094;5.880;2023-02-28T16:59:00;3.41;57.72
66102;HTU21D;52883;51.094;5.880;2023-02-28T17:01:27;3.40;57.87
66102;HTU21D;52883;51.094;5.880;2023-02-28T17:03:53;3.36;59.53
66102;HTU21D;52883;51.094;5.880;2023-02-28T17:06:29;3.38;58.83
66102;HTU21D;52883;51.094;5.880;2023-02-28T17:08:56;3.32;60.02
66102;HTU21D;52883;51.094;5.880;2023-02-28T17:11:24;3.31;60.28
66102;HTU21D;52883;51.094;5.880;2023-02-28T17:13:50;3.34;60.59
66102;HTU21D;52883;51.094;5.880;2023-02-28T17:16:33;3.29;61.96
66102;HTU21D;52883;51.094;5.880;2023-02-28T17:19:04;3.29;62.34
66102;HTU21D;52883;51.094;5.880;2023-02-28T17:21:31;3.21;62.52
66102;HTU21D;52883;51.094;5.880;2023-02-28T17:23:57;3.10;64.14
66102;HTU21D;52883;51.094;5.880;2023-02-28T17:26:23;3.03;64.81
66102;HTU21D;52883;51.094;5.880;2023-02-28T17:28:52;2.97;65.65
66102;HTU21D;52883;51.094;5.880;2023-02-28T17:31:19;2.86;66.14
66102;HTU21D;52883;51.094;5.880;2023-02-28T17:33:44;2.80;68.50
66102;HTU21D;52883;51.094;5.880;2023-02-28T17:36:14;2.78;67.79
66102;HTU21D;52883;51.094;5.880;2023-02-28T17:38:40;2.71;69.55
66102;HTU21D;52883;51.094;5.880;2023-02-28T17:41:09;2.70;70.97
66102;HTU21D;52883;51.094;5.880;2023-02-28T17:43:35;2.73;70.84
66102;HTU21D;52883;51.094;5.880;2023-02-28T17:46:01;2.69;71.88
66102;HTU21D;52883;51.094;5.880;2023-02-28T17:48:26;2.70;72.26
66102;HTU21D;52883;51.094;5.880;2023-02-28T17:50:53;2.70;72.00
66102;HTU21D;52883;51.094;5.880;2023-02-28T17:53:19;2.61;72.29
66102;HTU21D;52883;51.094;5.880;2023-02-28T17:55:49;2.46;75.30
66102;HTU21D;52883;51.094;5.880;2023-02-28T17:58:14;2.43;75.04
66102;HTU21D;52883;51.094;5.880;2023-02-28T18:00:40;2.42;75.19
66102;HTU21D;52883;51.094;5.880;2023-02-28T18:03:06;2.40;76.82